createdAt,value
2019-02-03T00:01:58.726Z,38.30
2019-02-03T00:04:29.734Z,38.83
2019-02-03T00:07:03.392Z,38.13
2019-02-03T00:09:32.889Z,36.53
2019-02-03T00:12:03.678Z,35.30
2019-02-03T00:14:34.292Z,36.97
2019-02-03T00:17:04.955Z,36.27
2019-02-03T00:19:35.737Z,38.63
2019-02-03T00:22:08.050Z,36.23
2019-02-03T00:24:38.640Z,34.73
2019-02-03T00:27:09.460Z,33.70
2019-02-03T00:29:40.041Z,36.43
2019-02-03T00:32:10.949Z,33.97
2019-02-03T00:34:41.487Z,36.63
2019-02-03T00:37:16.777Z,35.70
2019-02-03T00:39:44.433Z,33.87
2019-02-03T00:42:14.920Z,33.73
2019-02-03T00:44:45.426Z,33.70
2019-02-03T00:47:16.150Z,33.03
2019-02-03T00:49:46.716Z,32.77
2019-02-03T00:52:18.044Z,32.57
2019-02-03T00:54:48.600Z,35.50
2019-02-03T00:57:19.229Z,34.47
2019-02-03T00:59:49.716Z,33.13
2019-02-03T01:02:20.298Z,33.57
2019-02-03T01:04:51.220Z,32.20
2019-02-03T01:07:27.580Z,31.83
2019-02-03T01:09:54.458Z,42.43
2019-02-03T01:12:25.498Z,34.03
2019-02-03T01:14:56.260Z,33.30
2019-02-03T01:17:26.869Z,35.00
2019-02-03T01:19:57.505Z,33.83
2019-02-03T01:22:28.010Z,31.33
2019-02-03T01:24:58.718Z,32.67
2019-02-03T01:27:29.209Z,31.93
2019-02-03T01:29:59.755Z,31.37
2019-02-03T01:32:30.400Z,32.40
2019-02-03T01:35:00.942Z,33.53
2019-02-03T01:37:39.218Z,33.67
2019-02-03T01:40:04.975Z,31.37
2019-02-03T01:42:35.468Z,32.70
2019-02-03T01:45:08.768Z,31.97
2019-02-03T01:47:39.437Z,29.80
2019-02-03T01:50:12.474Z,30.23
2019-02-03T01:52:43.927Z,29.17
2019-02-03T01:55:21.142Z,28.77
2019-02-03T01:57:51.704Z,29.20
2019-02-03T02:00:24.556Z,28.33
2019-02-03T02:02:55.197Z,26.73
2019-02-03T02:05:25.881Z,27.07
2019-02-03T02:07:56.458Z,29.43
2019-02-03T02:10:28.448Z,27.27
2019-02-03T02:12:59.371Z,26.20
2019-02-03T02:15:29.888Z,27.30
2019-02-03T02:18:00.382Z,26.57
2019-02-03T02:20:31.407Z,28.00
2019-02-03T02:23:01.901Z,29.03
2019-02-03T02:25:32.724Z,29.10
2019-02-03T02:28:05.280Z,27.50
2019-02-03T02:30:35.780Z,27.17
2019-02-03T02:33:06.486Z,28.53
2019-02-03T02:35:37.061Z,29.57
2019-02-03T02:38:07.818Z,26.57
2019-02-03T02:40:38.688Z,25.70
2019-02-03T02:43:09.300Z,25.77
2019-02-03T02:45:41.487Z,27.27
2019-02-03T02:48:12.379Z,26.50
2019-02-03T02:50:45.117Z,28.70
2019-02-03T02:53:16.181Z,30.90
2019-02-03T02:55:46.791Z,34.07
2019-02-03T02:58:17.272Z,40.30
2019-02-03T03:00:47.875Z,34.23
2019-02-03T03:03:18.379Z,33.37
2019-02-03T03:05:49.307Z,32.20
2019-02-03T03:08:20.117Z,30.93
2019-02-03T03:10:50.770Z,29.77
2019-02-03T03:13:21.400Z,30.60
2019-02-03T03:15:51.970Z,30.80
2019-02-03T03:18:22.883Z,28.63
2019-02-03T03:20:53.427Z,27.10
2019-02-03T03:23:24.034Z,29.57
2019-02-03T03:25:54.704Z,28.23
2019-02-03T03:28:25.424Z,29.23
2019-02-03T03:30:56.306Z,28.40
2019-02-03T03:33:26.975Z,28.50
2019-02-03T03:35:57.473Z,26.83
2019-02-03T03:38:32.104Z,26.67
2019-02-03T03:41:00.501Z,27.70
2019-02-03T03:43:31.173Z,27.60
2019-02-03T03:46:02.039Z,27.37
2019-02-03T03:48:32.543Z,26.73
2019-02-03T03:51:03.182Z,28.07
2019-02-03T03:53:33.966Z,26.93
2019-02-03T03:56:04.500Z,26.83
2019-02-03T03:58:35.028Z,28.60
2019-02-03T04:01:05.702Z,26.33
2019-02-03T04:03:36.211Z,26.80
2019-02-03T04:06:06.906Z,26.87
2019-02-03T04:08:45.343Z,26.10
2019-02-03T04:11:10.140Z,26.20
2019-02-03T04:13:40.899Z,26.50
2019-02-03T04:16:11.542Z,25.13
2019-02-03T04:18:42.273Z,25.03
2019-02-03T04:21:13.192Z,26.93
2019-02-03T04:23:43.843Z,25.27
2019-02-03T04:26:15.870Z,28.87
2019-02-03T04:28:48.191Z,24.47
2019-02-03T04:31:20.007Z,25.97
2019-02-03T04:33:50.658Z,25.00
2019-02-03T04:36:21.247Z,25.23
2019-02-03T04:38:58.204Z,25.97
2019-02-03T04:41:24.119Z,25.60
2019-02-03T04:43:55.088Z,26.07
2019-02-03T04:46:25.879Z,25.43
2019-02-03T04:48:56.538Z,24.60
2019-02-03T04:51:27.197Z,24.83
2019-02-03T04:53:57.984Z,22.60
2019-02-03T04:56:29.032Z,23.23
2019-02-03T04:59:00.840Z,23.07
2019-02-03T05:01:31.430Z,22.53
2019-02-03T05:04:02.041Z,23.03
2019-02-03T05:06:32.690Z,21.73
2019-02-03T05:09:11.339Z,23.03
2019-02-03T05:11:37.803Z,24.23
2019-02-03T05:14:08.658Z,33.15
2019-02-03T05:16:39.269Z,28.13
2019-02-03T05:19:09.925Z,27.83
2019-02-03T05:21:40.756Z,28.50
2019-02-03T05:24:11.348Z,28.27
2019-02-03T05:26:41.976Z,26.03
2019-02-03T05:29:12.662Z,25.00
2019-02-03T05:31:43.263Z,23.80
2019-02-03T05:34:14.146Z,22.83
2019-02-03T05:36:44.757Z,24.77
2019-02-03T05:39:24.593Z,22.50
2019-02-03T05:41:47.832Z,22.73
2019-02-03T05:44:18.380Z,22.40
2019-02-03T05:46:49.477Z,21.63
2019-02-03T05:49:20.139Z,24.77
2019-02-03T05:51:50.866Z,22.93
2019-02-03T05:54:21.628Z,22.17
2019-02-03T05:56:52.155Z,21.73
2019-02-03T05:59:22.935Z,23.33
2019-02-03T06:01:53.477Z,21.60
2019-02-03T06:04:24.047Z,23.73
2019-02-03T06:06:54.748Z,21.77
2019-02-03T06:09:36.027Z,22.00
2019-02-03T06:11:57.727Z,23.80
2019-02-03T06:14:28.282Z,22.77
2019-02-03T06:16:58.813Z,22.27
2019-02-03T06:19:29.513Z,23.47
2019-02-03T06:22:00.027Z,25.63
2019-02-03T06:24:30.559Z,24.20
2019-02-03T06:27:01.264Z,24.47
2019-02-03T06:29:31.783Z,25.30
2019-02-03T06:32:02.340Z,25.63
2019-02-03T06:34:33.074Z,26.50
2019-02-03T06:37:03.677Z,25.97
2019-02-03T06:39:35.933Z,25.37
2019-02-03T06:42:08.194Z,23.90
2019-02-03T06:44:38.734Z,24.23
2019-02-03T06:47:19.222Z,34.60
2019-02-03T06:49:49.916Z,26.43
2019-02-03T06:52:20.582Z,34.57
2019-02-03T06:54:51.219Z,32.13
2019-02-03T06:57:21.747Z,28.27
2019-02-03T06:59:52.458Z,23.33
2019-02-03T07:02:23.083Z,22.57
2019-02-03T07:04:53.756Z,23.33
2019-02-03T07:07:24.320Z,24.47
2019-02-03T07:10:01.142Z,27.07
2019-02-03T07:12:32.043Z,28.63
2019-02-03T07:15:02.515Z,32.77
2019-02-03T07:17:33.087Z,39.40
2019-02-03T07:20:03.785Z,39.50
2019-02-03T07:22:34.369Z,39.90
2019-02-03T07:25:05.547Z,41.10
2019-02-03T07:27:36.122Z,44.93
2019-02-03T07:30:08.933Z,46.40
2019-02-03T07:32:39.573Z,40.53
2019-02-03T07:35:10.949Z,38.47
2019-02-03T07:37:41.527Z,33.20
2019-02-03T07:40:12.927Z,32.80
2019-02-03T07:42:43.709Z,32.63
2019-02-03T07:45:14.383Z,27.43
2019-02-03T07:47:45.545Z,26.73
2019-02-03T07:50:16.507Z,26.90
2019-02-03T07:52:47.340Z,24.17
2019-02-03T07:55:17.828Z,23.27
2019-02-03T07:57:48.916Z,23.93
2019-02-03T08:00:21.065Z,21.67
2019-02-03T08:02:52.207Z,20.63
2019-02-03T08:05:22.922Z,22.70
2019-02-03T08:07:53.963Z,24.10
2019-02-03T08:10:26.633Z,25.00
2019-02-03T08:12:57.169Z,23.33
2019-02-03T08:15:27.812Z,22.23
2019-02-03T08:17:58.462Z,22.03
2019-02-03T08:20:29.357Z,21.17
2019-02-03T08:23:00.216Z,21.73
2019-02-03T08:25:33.635Z,18.93
2019-02-03T08:28:04.975Z,20.80
2019-02-03T08:30:35.799Z,20.90
2019-02-03T08:33:06.644Z,18.23
2019-02-03T08:35:37.281Z,18.57
2019-02-03T08:38:08.299Z,17.40
2019-02-03T08:40:39.372Z,18.73
2019-02-03T08:43:10.028Z,16.50
2019-02-03T08:45:41.032Z,16.17
2019-02-03T08:48:11.880Z,17.27
2019-02-03T08:50:43.054Z,16.47
2019-02-03T08:53:13.635Z,17.20
2019-02-03T08:55:44.342Z,17.13
2019-02-03T08:58:15.456Z,18.23
2019-02-03T09:00:48.172Z,18.90
2019-02-03T09:03:20.404Z,20.23
2019-02-03T09:05:51.124Z,20.53
2019-02-03T09:08:21.837Z,19.97
2019-02-03T09:10:53.922Z,21.37
2019-02-03T09:13:24.950Z,19.83
2019-02-03T09:15:56.137Z,20.43
2019-02-03T09:18:26.929Z,21.40
2019-02-03T09:20:57.695Z,18.93
2019-02-03T09:23:28.533Z,17.93
2019-02-03T09:26:20.340Z,20.77
2019-02-03T09:28:51.020Z,17.57
2019-02-03T09:31:21.577Z,18.30
2019-02-03T09:33:52.272Z,16.73
2019-02-03T09:36:23.356Z,16.30
2019-02-03T09:38:54.297Z,17.00
2019-02-03T09:41:25.058Z,15.80
2019-02-03T09:43:55.769Z,13.97
2019-02-03T09:46:26.445Z,17.30
2019-02-03T09:48:57.529Z,18.47
2019-02-03T09:51:28.287Z,20.47
2019-02-03T09:53:58.876Z,18.03
2019-02-03T09:56:29.789Z,16.60
2019-02-03T09:59:00.678Z,17.50
2019-02-03T10:01:31.670Z,21.37
2019-02-03T10:04:02.261Z,30.50
2019-02-03T10:06:33.204Z,27.47
2019-02-03T10:09:06.031Z,30.13
2019-02-03T10:11:36.888Z,32.27
2019-02-03T10:14:08.834Z,32.00
2019-02-03T10:16:39.636Z,31.37
2019-02-03T10:19:10.804Z,28.97
2019-02-03T10:21:41.518Z,30.40
2019-02-03T10:24:12.058Z,27.57
2019-02-03T10:26:43.277Z,30.20
2019-02-03T10:29:14.278Z,30.40
2019-02-03T10:31:44.904Z,30.07
2019-02-03T10:34:15.653Z,31.40
2019-02-03T10:36:46.460Z,33.07
2019-02-03T10:39:17.435Z,30.90
2019-02-03T10:41:48.410Z,30.80
2019-02-03T10:44:18.950Z,33.27
2019-02-03T10:46:49.560Z,34.50
2019-02-03T10:49:20.567Z,34.27
2019-02-03T10:51:51.445Z,50.40
2019-02-03T10:54:22.012Z,47.07
2019-02-03T10:56:52.761Z,42.47
2019-02-03T10:59:23.495Z,40.30
2019-02-03T11:01:54.095Z,41.47
2019-02-03T11:04:24.863Z,44.37
2019-02-03T11:06:55.855Z,41.00
2019-02-03T11:09:26.857Z,40.40
2019-02-03T11:11:57.380Z,37.93
2019-02-03T11:14:28.223Z,37.73
2019-02-03T11:16:59.103Z,38.10
2019-02-03T11:19:30.342Z,37.70
2019-02-03T11:22:01.151Z,35.23
2019-02-03T11:24:32.267Z,36.80
2019-02-03T11:27:03.054Z,37.00
2019-02-03T11:29:33.834Z,37.10
2019-02-03T11:32:04.362Z,36.13
2019-02-03T11:34:35.055Z,36.10
2019-02-03T11:37:06.109Z,33.00
2019-02-03T11:39:37.031Z,34.90
2019-02-03T11:42:07.853Z,35.17
2019-02-03T11:44:38.586Z,32.87
2019-02-03T11:47:09.752Z,32.53
2019-02-03T11:49:40.637Z,34.70
2019-02-03T11:52:11.292Z,37.07
2019-02-03T11:54:42.034Z,29.63
2019-02-03T11:57:12.540Z,33.30
2019-02-03T11:59:43.550Z,25.77
2019-02-03T12:02:14.201Z,28.87
2019-02-03T12:04:44.930Z,28.67
2019-02-03T12:07:15.738Z,30.23
2019-02-03T12:09:46.489Z,31.60
2019-02-03T12:12:17.026Z,30.60
2019-02-03T12:14:47.837Z,28.70
2019-02-03T12:17:19.145Z,29.00
2019-02-03T12:19:49.968Z,28.87
2019-02-03T12:22:20.621Z,28.27
2019-02-03T12:24:51.606Z,27.87
2019-02-03T12:27:22.626Z,29.03
2019-02-03T12:29:53.889Z,29.10
2019-02-03T12:32:24.544Z,33.97
2019-02-03T12:34:56.007Z,30.40
2019-02-03T12:37:26.864Z,30.67
2019-02-03T12:39:57.714Z,33.83
2019-02-03T12:42:28.255Z,30.77
2019-02-03T12:44:58.998Z,29.10
2019-02-03T12:47:30.147Z,26.60
2019-02-03T12:50:01.269Z,30.17
2019-02-03T12:52:32.051Z,30.43
2019-02-03T12:55:02.743Z,30.43
2019-02-03T12:57:33.342Z,33.37
2019-02-03T13:00:05.977Z,31.57
2019-02-03T13:02:36.607Z,30.33
2019-02-03T13:05:08.190Z,33.17
2019-02-03T13:07:39.262Z,35.37
2019-02-03T13:10:16.544Z,38.30
2019-02-03T13:12:46.409Z,42.60
2019-02-03T13:15:22.686Z,41.60
2019-02-03T13:17:53.657Z,45.27
2019-02-03T13:20:28.852Z,43.97
2019-02-03T13:22:59.824Z,44.10
2019-02-03T13:25:30.570Z,42.23
2019-02-03T13:28:01.392Z,41.53
2019-02-03T13:30:34.882Z,41.83
2019-02-03T13:33:05.658Z,43.60
2019-02-03T13:35:36.533Z,43.20
2019-02-03T13:38:08.105Z,41.67
2019-02-03T13:40:39.059Z,44.53
2019-02-03T13:43:09.689Z,45.80
2019-02-03T13:45:40.827Z,43.73
2019-02-03T13:48:12.077Z,43.53
2019-02-03T13:50:42.900Z,44.43
2019-02-03T13:53:13.802Z,43.47
2019-02-03T13:55:44.529Z,45.73
2019-02-03T13:58:15.387Z,43.93
2019-02-03T14:00:47.123Z,45.17
2019-02-03T14:03:17.940Z,44.73
2019-02-03T14:05:48.795Z,46.93
2019-02-03T14:08:19.721Z,46.73
2019-02-03T14:10:50.459Z,47.43
2019-02-03T14:13:21.497Z,46.23
2019-02-03T14:15:52.373Z,46.07
2019-02-03T14:18:24.010Z,47.23
2019-02-03T14:20:54.924Z,46.87
2019-02-03T14:23:25.499Z,49.03
2019-02-03T14:25:56.223Z,49.87
2019-02-03T14:28:27.247Z,48.30
2019-02-03T14:30:58.284Z,50.40
2019-02-03T14:33:29.608Z,49.10
2019-02-03T14:36:00.411Z,50.43
2019-02-03T14:38:32.699Z,50.67
2019-02-03T14:41:03.711Z,49.77
2019-02-03T14:43:34.567Z,50.03
2019-02-03T14:46:05.773Z,48.40
2019-02-03T14:48:36.405Z,49.03
2019-02-03T14:51:07.269Z,49.70
2019-02-03T14:53:38.123Z,50.17
2019-02-03T14:56:09.146Z,49.77
2019-02-03T14:58:40.101Z,48.57
2019-02-03T15:01:11.061Z,48.53
2019-02-03T15:03:41.692Z,47.87
2019-02-03T15:06:12.286Z,49.50
2019-02-03T15:08:42.927Z,46.97
2019-02-03T15:11:15.423Z,47.53
2019-02-03T15:13:46.118Z,46.87
2019-02-03T15:16:16.665Z,46.90
2019-02-03T15:18:47.197Z,46.80
2019-02-03T15:21:18.479Z,67.17
2019-02-03T15:23:48.973Z,55.80
2019-02-03T15:26:19.505Z,52.13
2019-02-03T15:28:50.309Z,50.97
2019-02-03T15:31:21.353Z,49.57
2019-02-03T15:33:52.193Z,51.60
2019-02-03T15:36:23.219Z,51.03
2019-02-03T15:38:53.807Z,48.43
2019-02-03T15:41:24.488Z,47.07
2019-02-03T15:43:55.163Z,45.90
2019-02-03T15:46:27.221Z,45.50
2019-02-03T15:48:57.892Z,46.60
2019-02-03T15:51:28.581Z,46.83
2019-02-03T15:54:00.314Z,48.33
2019-02-03T15:56:30.881Z,46.57
2019-02-03T15:59:02.346Z,49.20
2019-02-03T16:01:33.007Z,47.70
2019-02-03T16:04:03.710Z,47.57
2019-02-03T16:06:34.438Z,47.67
2019-02-03T16:09:07.562Z,47.43
2019-02-03T16:11:38.723Z,50.83
2019-02-03T16:14:09.264Z,46.23
2019-02-03T16:16:40.200Z,47.03
2019-02-03T16:19:11.346Z,48.03
2019-02-03T16:21:42.224Z,50.77
2019-02-03T16:24:13.167Z,51.83
2019-02-03T16:26:44.075Z,59.37
2019-02-03T16:29:15.068Z,59.40
2019-02-03T16:31:45.773Z,54.20
2019-02-03T16:34:16.367Z,54.27
2019-02-03T16:36:46.993Z,54.30
2019-02-03T16:39:19.043Z,52.83
2019-02-03T16:41:49.718Z,51.57
2019-02-03T16:44:22.867Z,52.23
2019-02-03T16:46:52.528Z,51.47
2019-02-03T16:49:23.819Z,54.17
2019-02-03T16:51:54.904Z,53.17
2019-02-03T16:54:25.607Z,55.50
2019-02-03T16:56:56.466Z,54.03
2019-02-03T16:59:27.079Z,50.50
2019-02-03T17:01:58.193Z,52.43
2019-02-03T17:04:28.823Z,50.03
2019-02-03T17:06:59.646Z,50.47
2019-02-03T17:09:32.722Z,53.37
2019-02-03T17:12:03.295Z,52.07
2019-02-03T17:14:34.226Z,50.67
2019-02-03T17:17:05.383Z,49.53
2019-02-03T17:19:36.086Z,49.90
2019-02-03T17:22:07.197Z,50.77
2019-02-03T17:24:37.830Z,52.00
2019-02-03T17:27:08.705Z,50.17
2019-02-03T17:29:40.834Z,51.20
2019-02-03T17:32:11.379Z,57.17
2019-02-03T17:34:41.895Z,51.03
2019-02-03T17:37:12.608Z,53.33
2019-02-03T17:39:43.660Z,62.87
2019-02-03T17:42:14.413Z,54.87
2019-02-03T17:44:45.220Z,60.57
2019-02-03T17:47:16.018Z,54.23
2019-02-03T17:49:46.785Z,64.13
2019-02-03T17:52:17.881Z,60.83
2019-02-03T17:54:48.453Z,61.90
2019-02-03T17:57:19.408Z,61.70
2019-02-03T17:59:51.395Z,55.67
2019-02-03T18:02:22.202Z,57.37
2019-02-03T18:04:54.417Z,53.83
2019-02-03T18:07:46.166Z,49.90
2019-02-03T18:10:22.856Z,52.07
2019-02-03T18:12:57.174Z,46.97
2019-02-03T18:15:29.078Z,46.50
2019-02-03T18:18:01.063Z,44.83
2019-02-03T18:20:44.082Z,44.23
2019-02-03T18:23:24.142Z,42.87
2019-02-03T18:26:11.587Z,46.47
2019-02-03T18:28:52.230Z,45.73
2019-02-03T18:31:40.242Z,46.03
2019-02-03T18:34:13.334Z,45.63
2019-02-03T18:36:46.851Z,43.27
2019-02-03T18:39:19.353Z,43.63
2019-02-03T18:41:52.060Z,43.87
2019-02-03T18:44:36.041Z,46.57
2019-02-03T18:47:10.620Z,41.07
2019-02-03T18:49:43.991Z,41.13
2019-02-03T18:52:14.781Z,36.87
2019-02-03T18:54:45.440Z,38.77
2019-02-03T18:57:16.476Z,37.27
2019-02-03T18:59:47.590Z,36.33
2019-02-03T19:02:18.580Z,35.67
2019-02-03T19:04:49.436Z,37.63
2019-02-03T19:07:20.491Z,39.03
2019-02-03T19:09:51.105Z,38.47
2019-02-03T19:12:22.240Z,43.17
2019-02-03T19:14:52.980Z,40.97
2019-02-03T19:17:23.771Z,40.47
2019-02-03T19:19:54.613Z,42.33
2019-02-03T19:22:25.384Z,43.97
2019-02-03T19:24:56.345Z,47.00
2019-02-03T19:27:27.003Z,43.10
2019-02-03T19:29:57.941Z,45.30
2019-02-03T19:32:29.277Z,46.10
2019-02-03T19:35:00.008Z,44.50
2019-02-03T19:37:30.813Z,46.33
2019-02-03T19:40:02.142Z,45.63
2019-02-03T19:42:33.022Z,45.00
2019-02-03T19:45:04.687Z,47.17
2019-02-03T19:47:36.274Z,48.97
2019-02-03T19:50:10.207Z,45.63
2019-02-03T19:52:43.810Z,47.23
2019-02-03T19:55:14.964Z,44.57
2019-02-03T19:57:46.079Z,41.40
2019-02-03T20:00:23.687Z,41.87
2019-02-03T20:02:54.591Z,42.70
2019-02-03T20:05:25.710Z,41.30
2019-02-03T20:07:56.837Z,40.43
2019-02-03T20:10:28.112Z,40.07
2019-02-03T20:13:01.700Z,42.90
2019-02-03T20:15:31.535Z,42.53
2019-02-03T20:18:02.640Z,43.90
2019-02-03T20:20:35.403Z,44.10
2019-02-03T20:23:06.830Z,43.33
2019-02-03T20:25:40.269Z,44.20
2019-02-03T20:28:12.123Z,46.57
2019-02-03T20:30:43.093Z,45.40
2019-02-03T20:33:13.780Z,47.93
2019-02-03T20:35:44.810Z,58.60
2019-02-03T20:38:15.605Z,55.07
2019-02-03T20:40:46.466Z,57.63
2019-02-03T20:43:17.460Z,51.40
2019-02-03T20:45:49.780Z,51.30
2019-02-03T20:48:20.956Z,64.50
2019-02-03T20:50:51.968Z,54.20
2019-02-03T20:53:23.203Z,61.27
2019-02-03T20:55:54.022Z,59.47
2019-02-03T20:58:24.576Z,53.17
2019-02-03T21:00:55.789Z,56.10
2019-02-03T21:03:27.169Z,51.10
2019-02-03T21:05:57.669Z,46.77
2019-02-03T21:08:30.203Z,60.47
2019-02-03T21:11:02.892Z,57.97
2019-02-03T21:13:35.742Z,55.97
2019-02-03T21:16:08.057Z,66.23
2019-02-03T21:18:40.858Z,77.37
2019-02-03T21:21:11.575Z,65.30
2019-02-03T21:23:42.375Z,71.90
2019-02-03T21:26:16.482Z,64.73
2019-02-03T21:28:46.514Z,57.47
2019-02-03T21:31:17.615Z,70.57
2019-02-03T21:33:48.625Z,94.80
2019-02-03T21:36:19.611Z,67.97
2019-02-03T21:38:50.833Z,69.50
2019-02-03T21:41:21.514Z,63.00
2019-02-03T21:43:52.763Z,84.43
2019-02-03T21:46:24.080Z,82.30
2019-02-03T21:48:55.209Z,82.30
2019-02-03T21:51:25.876Z,75.30
2019-02-03T21:53:56.948Z,70.53
2019-02-03T21:56:27.638Z,69.50
2019-02-03T21:58:58.535Z,73.60
2019-02-03T22:01:29.590Z,70.17
2019-02-03T22:04:00.639Z,69.60
2019-02-03T22:06:31.433Z,68.93
2019-02-03T22:09:04.489Z,68.37
2019-02-03T22:11:35.797Z,69.77
2019-02-03T22:14:06.986Z,66.27
2019-02-03T22:16:37.753Z,64.60
2019-02-03T22:19:09.360Z,63.07
2019-02-03T22:21:40.678Z,59.60
2019-02-03T22:24:11.780Z,61.43
2019-02-03T22:26:43.486Z,56.37
2019-02-03T22:29:14.659Z,58.90
2019-02-03T22:31:46.338Z,57.57
2019-02-03T22:34:18.811Z,56.27
2019-02-03T22:36:50.617Z,56.30
2019-02-03T22:39:22.438Z,53.03
2019-02-03T22:41:55.011Z,52.73
2019-02-03T22:44:26.574Z,55.80
2019-02-03T22:46:58.701Z,54.50
2019-02-03T22:49:30.579Z,59.80
2019-02-03T22:52:02.529Z,64.70
2019-02-03T22:54:35.355Z,66.40
2019-02-03T22:57:07.319Z,67.67
2019-02-03T22:59:39.252Z,71.77
2019-02-03T23:02:11.958Z,70.83
2019-02-03T23:04:43.645Z,69.67
2019-02-03T23:07:15.712Z,68.97
2019-02-03T23:09:47.813Z,67.10
2019-02-03T23:12:20.339Z,66.43
2019-02-03T23:14:52.974Z,63.27
2019-02-03T23:17:23.837Z,64.87
2019-02-03T23:19:55.912Z,65.43
2019-02-03T23:22:27.527Z,64.80
2019-02-03T23:24:59.396Z,64.23
2019-02-03T23:27:31.616Z,64.63
2019-02-03T23:30:04.729Z,67.37
2019-02-03T23:32:40.141Z,63.10
2019-02-03T23:35:14.207Z,66.87
2019-02-03T23:37:45.332Z,65.70
2019-02-03T23:40:17.461Z,62.27
2019-02-03T23:42:51.000Z,60.50
2019-02-03T23:45:23.457Z,62.53
2019-02-03T23:47:55.949Z,62.40
2019-02-03T23:50:27.651Z,61.27
2019-02-03T23:52:59.451Z,60.33
2019-02-03T23:55:31.623Z,59.00
2019-02-03T23:58:03.492Z,54.93
